Portada
METAR-TAF:

METAR-TAF

Aeroports :

Aeroport de Chingozi

Tete, Moçambic

latitud: 16-06S, longitud: 033-38E, altitud: 160 m

Observació

L'informe es va fer fa 1 hora i 2 minuts, a les 02:00 UTC
Vent 4 kt del Est/Sud-Est
Temperatura 31°C
Humitat 52%
Pressió 1008 hPa
Visibilitat 10 km o més
sense núvols per sota de 1500 mi sense presència de cumulonimbus.

METAR: FQTT 240200Z 12004KT CAVOK 31/20 Q1008

Hora: 05:02 (03:02 UTC)

Pronòstic

L'informe es va fer fa 5 hores i 2 minuts, a les 22:00 UTC
Pronòstic vàlid del 24 a les 00 UTC al 24 a les 24 UTC
Vent 2 kt amb direcció variable
Visibilitat 10 km o més
Escasses núvols a una alçada de 2000 ft
Evolucionant progressivament
l' 24 a les 06 UTC al 24 a les 08 UTC
Vent 8 kt del Sud/Sud-Est
Evolucionant progressivament
l' 24 a les 12 UTC al 24 a les 14 UTC
Vent 13 kt del Est

TAF: FQTT 232200Z 2400/2424 VRB02KT 9999 FEW020 TX43/2413Z TN27/2403Z BECMG 2406/2408 15008KT BECMG 2412/2414 09013KT

Observacions i pronòstics meteorològics de més de 4000 aeroports (METAR i TAF).

Les estacions disponibles són els punts grocs i vermells al mapa.

Posi el ratolí al punt desitjat per veure el nom de l'estació.

Feu clic per veure les observacions i els pronòstics meteorològics.

Per canviar el mapa: feu clic els botons verds amb una creu de color negre per apropar; al botó verd amb un guió per allunyar la imatge; o en les fletxes verdes per a mapes adjacents.


METAR-TAF: